sensor_id;sensor_type;location;lat;lon;timestamp;P1;durP1;ratioP1;P2;durP2;ratioP2
32082;SDS011;18597;48.328;7.932;2023-09-19T00:02:01;6.10;;;2.57;;
32082;SDS011;18597;48.328;7.932;2023-09-19T00:04:32;2.63;;;2.10;;
32082;SDS011;18597;48.328;7.932;2023-09-19T00:06:58;3.77;;;2.33;;
32082;SDS011;18597;48.328;7.932;2023-09-19T00:09:24;7.37;;;2.43;;
32082;SDS011;18597;48.328;7.932;2023-09-19T00:11:53;6.93;;;2.00;;
32082;SDS011;18597;48.328;7.932;2023-09-19T00:14:19;2.30;;;2.20;;
32082;SDS011;18597;48.328;7.932;2023-09-19T00:16:45;2.50;;;2.00;;
32082;SDS011;18597;48.328;7.932;2023-09-19T00:19:11;5.43;;;1.97;;
32082;SDS011;18597;48.328;7.932;2023-09-19T00:21:39;3.17;;;2.37;;
32082;SDS011;18597;48.328;7.932;2023-09-19T00:24:06;2.47;;;1.50;;
32082;SDS011;18597;48.328;7.932;2023-09-19T00:26:33;2.47;;;1.90;;
32082;SDS011;18597;48.328;7.932;2023-09-19T00:29:00;2.13;;;2.03;;
32082;SDS011;18597;48.328;7.932;2023-09-19T00:31:33;2.53;;;2.43;;
32082;SDS011;18597;48.328;7.932;2023-09-19T00:33:59;2.10;;;2.00;;
32082;SDS011;18597;48.328;7.932;2023-09-19T00:36:29;8.03;;;2.40;;
32082;SDS011;18597;48.328;7.932;2023-09-19T00:38:55;1.33;;;1.30;;
32082;SDS011;18597;48.328;7.932;2023-09-19T00:41:20;3.30;;;2.23;;
32082;SDS011;18597;48.328;7.932;2023-09-19T00:43:46;3.93;;;1.80;;
32082;SDS011;18597;48.328;7.932;2023-09-19T00:46:16;2.83;;;1.80;;
32082;SDS011;18597;48.328;7.932;2023-09-19T00:48:42;6.60;;;2.27;;
32082;SDS011;18597;48.328;7.932;2023-09-19T00:51:08;2.43;;;2.30;;
32082;SDS011;18597;48.328;7.932;2023-09-19T00:53:35;3.43;;;2.47;;
32082;SDS011;18597;48.328;7.932;2023-09-19T00:56:02;2.43;;;2.00;;
32082;SDS011;18597;48.328;7.932;2023-09-19T00:58:32;11.70;;;2.13;;
32082;SDS011;18597;48.328;7.932;2023-09-19T01:01:00;11.60;;;2.40;;
32082;SDS011;18597;48.328;7.932;2023-09-19T01:03:27;2.97;;;2.70;;
32082;SDS011;18597;48.328;7.932;2023-09-19T01:05:53;3.10;;;2.90;;
32082;SDS011;18597;48.328;7.932;2023-09-19T01:08:19;3.17;;;1.80;;
32082;SDS011;18597;48.328;7.932;2023-09-19T01:10:52;2.83;;;2.57;;
32082;SDS011;18597;48.328;7.932;2023-09-19T01:13:29;1.70;;;1.60;;
32082;SDS011;18597;48.328;7.932;2023-09-19T01:19:40;2.17;;;1.90;;
32082;SDS011;18597;48.328;7.932;2023-09-19T01:28:31;2.87;;;2.07;;
32082;SDS011;18597;48.328;7.932;2023-09-19T01:31:12;2.10;;;2.00;;
32082;SDS011;18597;48.328;7.932;2023-09-19T01:36:26;1.93;;;1.93;;
32082;SDS011;18597;48.328;7.932;2023-09-19T01:38:55;2.60;;;2.40;;
32082;SDS011;18597;48.328;7.932;2023-09-19T01:41:26;2.40;;;2.30;;
32082;SDS011;18597;48.328;7.932;2023-09-19T01:44:04;3.03;;;2.30;;
32082;SDS011;18597;48.328;7.932;2023-09-19T01:46:39;3.60;;;2.53;;
32082;SDS011;18597;48.328;7.932;2023-09-19T01:49:24;3.83;;;2.20;;
32082;SDS011;18597;48.328;7.932;2023-09-19T01:52:03;5.40;;;3.27;;
32082;SDS011;18597;48.328;7.932;2023-09-19T01:54:46;4.67;;;2.40;;
32082;SDS011;18597;48.328;7.932;2023-09-19T01:57:20;3.40;;;3.10;;
32082;SDS011;18597;48.328;7.932;2023-09-19T02:00:00;2.90;;;2.10;;
32082;SDS011;18597;48.328;7.932;2023-09-19T02:02:34;13.07;;;2.60;;
32082;SDS011;18597;48.328;7.932;2023-09-19T02:05:03;4.33;;;2.53;;
32082;SDS011;18597;48.328;7.932;2023-09-19T02:07:31;6.43;;;2.47;;
32082;SDS011;18597;48.328;7.932;2023-09-19T02:09:58;2.80;;;2.27;;
32082;SDS011;18597;48.328;7.932;2023-09-19T02:12:25;3.40;;;2.30;;
32082;SDS011;18597;48.328;7.932;2023-09-19T02:14:52;2.00;;;1.90;;
32082;SDS011;18597;48.328;7.932;2023-09-19T02:17:18;6.13;;;2.50;;
32082;SDS011;18597;48.328;7.932;2023-09-19T02:19:44;3.30;;;3.10;;
32082;SDS011;18597;48.328;7.932;2023-09-19T02:22:10;3.93;;;2.50;;
32082;SDS011;18597;48.328;7.932;2023-09-19T02:24:37;1.97;;;1.87;;
32082;SDS011;18597;48.328;7.932;2023-09-19T02:27:03;3.90;;;2.43;;
32082;SDS011;18597;48.328;7.932;2023-09-19T02:29:30;4.37;;;2.30;;
32082;SDS011;18597;48.328;7.932;2023-09-19T02:31:57;3.03;;;2.60;;
32082;SDS011;18597;48.328;7.932;2023-09-19T02:34:23;3.27;;;2.27;;
32082;SDS011;18597;48.328;7.932;2023-09-19T02:36:50;5.10;;;3.20;;
32082;SDS011;18597;48.328;7.932;2023-09-19T02:39:18;2.60;;;2.40;;
32082;SDS011;18597;48.328;7.932;2023-09-19T02:41:44;2.37;;;2.27;;
32082;SDS011;18597;48.328;7.932;2023-09-19T02:44:11;2.97;;;2.60;;
32082;SDS011;18597;48.328;7.932;2023-09-19T02:46:37;4.27;;;2.70;;
32082;SDS011;18597;48.328;7.932;2023-09-19T02:49:03;7.73;;;2.77;;
32082;SDS011;18597;48.328;7.932;2023-09-19T02:51:31;2.50;;;1.67;;
32082;SDS011;18597;48.328;7.932;2023-09-19T02:53:59;4.00;;;2.33;;
32082;SDS011;18597;48.328;7.932;2023-09-19T02:56:25;4.53;;;2.30;;
32082;SDS011;18597;48.328;7.932;2023-09-19T02:58:51;1.53;;;1.50;;
32082;SDS011;18597;48.328;7.932;2023-09-19T03:01:18;2.03;;;1.90;;
32082;SDS011;18597;48.328;7.932;2023-09-19T03:03:44;4.23;;;2.33;;
32082;SDS011;18597;48.328;7.932;2023-09-19T03:06:10;2.23;;;2.13;;
32082;SDS011;18597;48.328;7.932;2023-09-19T03:08:38;7.30;;;1.93;;
32082;SDS011;18597;48.328;7.932;2023-09-19T03:11:05;1.53;;;1.53;;
32082;SDS011;18597;48.328;7.932;2023-09-19T03:13:33;5.17;;;2.70;;
32082;SDS011;18597;48.328;7.932;2023-09-19T03:15:59;4.33;;;2.37;;
32082;SDS011;18597;48.328;7.932;2023-09-19T03:18:25;2.77;;;1.70;;
32082;SDS011;18597;48.328;7.932;2023-09-19T03:20:53;3.30;;;1.80;;
32082;SDS011;18597;48.328;7.932;2023-09-19T03:23:20;4.03;;;2.33;;
32082;SDS011;18597;48.328;7.932;2023-09-19T03:25:46;7.40;;;1.90;;
32082;SDS011;18597;48.328;7.932;2023-09-19T03:28:12;6.00;;;1.70;;
32082;SDS011;18597;48.328;7.932;2023-09-19T03:30:40;6.13;;;3.20;;
32082;SDS011;18597;48.328;7.932;2023-09-19T03:33:07;1.53;;;1.53;;
32082;SDS011;18597;48.328;7.932;2023-09-19T03:35:33;4.50;;;2.03;;
32082;SDS011;18597;48.328;7.932;2023-09-19T03:37:59;5.40;;;2.23;;
32082;SDS011;18597;48.328;7.932;2023-09-19T03:40:25;2.60;;;1.70;;
32082;SDS011;18597;48.328;7.932;2023-09-19T03:42:51;2.40;;;2.20;;
32082;SDS011;18597;48.328;7.932;2023-09-19T03:45:17;2.27;;;2.17;;
32082;SDS011;18597;48.328;7.932;2023-09-19T03:47:43;5.90;;;1.97;;
32082;SDS011;18597;48.328;7.932;2023-09-19T03:50:09;1.83;;;1.73;;
32082;SDS011;18597;48.328;7.932;2023-09-19T03:52:36;2.83;;;2.63;;
32082;SDS011;18597;48.328;7.932;2023-09-19T03:55:02;2.30;;;2.10;;
32082;SDS011;18597;48.328;7.932;2023-09-19T03:57:29;1.93;;;1.87;;
32082;SDS011;18597;48.328;7.932;2023-09-19T03:59:55;3.37;;;2.37;;
32082;SDS011;18597;48.328;7.932;2023-09-19T04:02:21;4.00;;;3.60;;
32082;SDS011;18597;48.328;7.932;2023-09-19T04:04:48;9.30;;;6.43;;
32082;SDS011;18597;48.328;7.932;2023-09-19T04:07:14;5.00;;;2.83;;
32082;SDS011;18597;48.328;7.932;2023-09-19T04:09:40;2.87;;;2.40;;
32082;SDS011;18597;48.328;7.932;2023-09-19T04:12:07;4.37;;;2.60;;
32082;SDS011;18597;48.328;7.932;2023-09-19T04:14:34;8.33;;;3.10;;
32082;SDS011;18597;48.328;7.932;2023-09-19T04:16:59;3.10;;;2.30;;
32082;SDS011;18597;48.328;7.932;2023-09-19T04:19:25;2.17;;;1.97;;
32082;SDS011;18597;48.328;7.932;2023-09-19T04:21:51;3.97;;;3.00;;
32082;SDS011;18597;48.328;7.932;2023-09-19T04:24:17;6.90;;;2.50;;
32082;SDS011;18597;48.328;7.932;2023-09-19T04:26:44;2.73;;;2.33;;
32082;SDS011;18597;48.328;7.932;2023-09-19T04:29:10;7.33;;;2.27;;
32082;SDS011;18597;48.328;7.932;2023-09-19T04:31:39;3.73;;;2.33;;
32082;SDS011;18597;48.328;7.932;2023-09-19T04:34:05;3.70;;;2.30;;
32082;SDS011;18597;48.328;7.932;2023-09-19T04:36:35;6.93;;;2.77;;
32082;SDS011;18597;48.328;7.932;2023-09-19T04:39:02;2.80;;;2.67;;
32082;SDS011;18597;48.328;7.932;2023-09-19T04:41:30;5.63;;;2.40;;
32082;SDS011;18597;48.328;7.932;2023-09-19T04:43:56;5.10;;;1.90;;
32082;SDS011;18597;48.328;7.932;2023-09-19T04:46:21;2.37;;;2.10;;
32082;SDS011;18597;48.328;7.932;2023-09-19T04:48:47;10.50;;;3.03;;
32082;SDS011;18597;48.328;7.932;2023-09-19T04:51:13;7.23;;;3.20;;
32082;SDS011;18597;48.328;7.932;2023-09-19T04:53:40;2.70;;;2.50;;
32082;SDS011;18597;48.328;7.932;2023-09-19T04:56:06;6.40;;;2.77;;
32082;SDS011;18597;48.328;7.932;2023-09-19T04:58:33;2.43;;;2.23;;
32082;SDS011;18597;48.328;7.932;2023-09-19T05:00:59;2.13;;;2.03;;
32082;SDS011;18597;48.328;7.932;2023-09-19T05:03:27;2.23;;;2.13;;
32082;SDS011;18597;48.328;7.932;2023-09-19T05:05:54;3.77;;;3.40;;
32082;SDS011;18597;48.328;7.932;2023-09-19T05:08:20;2.30;;;2.20;;
32082;SDS011;18597;48.328;7.932;2023-09-19T05:10:47;2.83;;;2.57;;
32082;SDS011;18597;48.328;7.932;2023-09-19T05:13:14;2.77;;;2.67;;
32082;SDS011;18597;48.328;7.932;2023-09-19T05:15:40;1.77;;;1.67;;
32082;SDS011;18597;48.328;7.932;2023-09-19T05:18:06;8.53;;;3.23;;
32082;SDS011;18597;48.328;7.932;2023-09-19T05:20:32;5.03;;;3.37;;
32082;SDS011;18597;48.328;7.932;2023-09-19T05:23:00;2.60;;;2.30;;
32082;SDS011;18597;48.328;7.932;2023-09-19T05:25:31;8.55;;;3.70;;
32082;SDS011;18597;48.328;7.932;2023-09-19T05:27:58;5.97;;;2.40;;
32082;SDS011;18597;48.328;7.932;2023-09-19T05:30:25;4.33;;;1.87;;
32082;SDS011;18597;48.328;7.932;2023-09-19T05:32:54;2.60;;;2.40;;
32082;SDS011;18597;48.328;7.932;2023-09-19T05:35:20;4.30;;;2.40;;
32082;SDS011;18597;48.328;7.932;2023-09-19T05:37:47;9.03;;;3.30;;
32082;SDS011;18597;48.328;7.932;2023-09-19T05:40:16;10.60;;;2.30;;
32082;SDS011;18597;48.328;7.932;2023-09-19T05:42:43;5.10;;;2.23;;
32082;SDS011;18597;48.328;7.932;2023-09-19T05:45:10;4.37;;;2.00;;
32082;SDS011;18597;48.328;7.932;2023-09-19T05:47:37;4.50;;;2.37;;
32082;SDS011;18597;48.328;7.932;2023-09-19T05:50:05;4.30;;;2.37;;
32082;SDS011;18597;48.328;7.932;2023-09-19T05:52:34;2.50;;;2.30;;
32082;SDS011;18597;48.328;7.932;2023-09-19T05:55:03;3.80;;;3.10;;
32082;SDS011;18597;48.328;7.932;2023-09-19T05:57:31;4.73;;;2.47;;
32082;SDS011;18597;48.328;7.932;2023-09-19T05:59:58;4.93;;;2.70;;
32082;SDS011;18597;48.328;7.932;2023-09-19T06:02:23;4.80;;;2.70;;
32082;SDS011;18597;48.328;7.932;2023-09-19T06:04:53;3.50;;;2.10;;
32082;SDS011;18597;48.328;7.932;2023-09-19T06:07:21;2.97;;;2.10;;
32082;SDS011;18597;48.328;7.932;2023-09-19T06:09:51;3.23;;;1.87;;
32082;SDS011;18597;48.328;7.932;2023-09-19T06:12:18;11.13;;;2.90;;
32082;SDS011;18597;48.328;7.932;2023-09-19T06:14:44;4.97;;;1.80;;
32082;SDS011;18597;48.328;7.932;2023-09-19T06:17:11;6.57;;;1.77;;
32082;SDS011;18597;48.328;7.932;2023-09-19T06:19:37;2.40;;;2.27;;
32082;SDS011;18597;48.328;7.932;2023-09-19T06:22:02;5.10;;;1.90;;
32082;SDS011;18597;48.328;7.932;2023-09-19T06:24:28;3.40;;;2.40;;
32082;SDS011;18597;48.328;7.932;2023-09-19T06:26:55;7.50;;;2.10;;
32082;SDS011;18597;48.328;7.932;2023-09-19T06:29:21;3.30;;;2.10;;
32082;SDS011;18597;48.328;7.932;2023-09-19T06:31:48;2.77;;;2.57;;
32082;SDS011;18597;48.328;7.932;2023-09-19T06:34:14;7.13;;;2.03;;
32082;SDS011;18597;48.328;7.932;2023-09-19T06:36:41;3.33;;;1.70;;
32082;SDS011;18597;48.328;7.932;2023-09-19T06:39:07;1.57;;;1.47;;
32082;SDS011;18597;48.328;7.932;2023-09-19T06:41:36;1.80;;;1.33;;
32082;SDS011;18597;48.328;7.932;2023-09-19T06:44:04;7.37;;;1.93;;
32082;SDS011;18597;48.328;7.932;2023-09-19T06:46:30;5.57;;;2.20;;
32082;SDS011;18597;48.328;7.932;2023-09-19T06:49:00;6.87;;;2.07;;
32082;SDS011;18597;48.328;7.932;2023-09-19T06:51:28;2.00;;;1.90;;
32082;SDS011;18597;48.328;7.932;2023-09-19T06:53:54;1.80;;;1.70;;
32082;SDS011;18597;48.328;7.932;2023-09-19T06:56:22;2.53;;;1.83;;
32082;SDS011;18597;48.328;7.932;2023-09-19T06:58:48;1.90;;;1.73;;
32082;SDS011;18597;48.328;7.932;2023-09-19T07:01:14;4.23;;;1.73;;
32082;SDS011;18597;48.328;7.932;2023-09-19T07:03:40;3.23;;;1.57;;
32082;SDS011;18597;48.328;7.932;2023-09-19T07:06:06;7.03;;;1.40;;
32082;SDS011;18597;48.328;7.932;2023-09-19T07:08:33;4.73;;;1.40;;
32082;SDS011;18597;48.328;7.932;2023-09-19T07:10:59;2.50;;;1.60;;
32082;SDS011;18597;48.328;7.932;2023-09-19T07:13:25;1.93;;;1.10;;
32082;SDS011;18597;48.328;7.932;2023-09-19T07:15:51;9.43;;;1.57;;
32082;SDS011;18597;48.328;7.932;2023-09-19T07:18:17;1.03;;;0.93;;
32082;SDS011;18597;48.328;7.932;2023-09-19T07:20:44;1.27;;;1.00;;
32082;SDS011;18597;48.328;7.932;2023-09-19T07:23:14;0.77;;;0.77;;
32082;SDS011;18597;48.328;7.932;2023-09-19T07:25:43;3.90;;;0.90;;
32082;SDS011;18597;48.328;7.932;2023-09-19T07:28:09;9.20;;;1.47;;
32082;SDS011;18597;48.328;7.932;2023-09-19T07:30:36;1.70;;;0.80;;
32082;SDS011;18597;48.328;7.932;2023-09-19T07:33:02;5.03;;;0.70;;
32082;SDS011;18597;48.328;7.932;2023-09-19T07:35:30;1.20;;;1.20;;
32082;SDS011;18597;48.328;7.932;2023-09-19T07:37:56;0.57;;;0.57;;
32082;SDS011;18597;48.328;7.932;2023-09-19T07:40:26;3.83;;;1.10;;
32082;SDS011;18597;48.328;7.932;2023-09-19T07:42:54;1.03;;;1.03;;
32082;SDS011;18597;48.328;7.932;2023-09-19T07:45:20;1.58;;;0.98;;
32082;SDS011;18597;48.328;7.932;2023-09-19T07:47:48;0.82;;;0.82;;
32082;SDS011;18597;48.328;7.932;2023-09-19T07:50:16;0.90;;;0.90;;
32082;SDS011;18597;48.328;7.932;2023-09-19T07:52:44;0.60;;;0.60;;
32082;SDS011;18597;48.328;7.932;2023-09-19T07:55:11;0.70;;;0.70;;
32082;SDS011;18597;48.328;7.932;2023-09-19T07:57:42;0.60;;;0.60;;
32082;SDS011;18597;48.328;7.932;2023-09-19T08:00:09;1.40;;;1.30;;
32082;SDS011;18597;48.328;7.932;2023-09-19T08:02:36;0.70;;;0.70;;
32082;SDS011;18597;48.328;7.932;2023-09-19T08:05:04;2.70;;;0.80;;
32082;SDS011;18597;48.328;7.932;2023-09-19T08:07:32;0.80;;;0.40;;
32082;SDS011;18597;48.328;7.932;2023-09-19T08:09:58;0.40;;;0.40;;
32082;SDS011;18597;48.328;7.932;2023-09-19T08:12:24;2.38;;;0.68;;
32082;SDS011;18597;48.328;7.932;2023-09-19T08:14:50;1.38;;;1.27;;
32082;SDS011;18597;48.328;7.932;2023-09-19T08:17:16;0.90;;;0.90;;
32082;SDS011;18597;48.328;7.932;2023-09-19T08:19:42;0.70;;;0.68;;
32082;SDS011;18597;48.328;7.932;2023-09-19T08:22:10;3.10;;;0.77;;
32082;SDS011;18597;48.328;7.932;2023-09-19T08:24:36;0.70;;;0.70;;
32082;SDS011;18597;48.328;7.932;2023-09-19T08:27:03;1.67;;;0.60;;
32082;SDS011;18597;48.328;7.932;2023-09-19T08:29:30;0.83;;;0.83;;
32082;SDS011;18597;48.328;7.932;2023-09-19T08:31:57;2.83;;;0.97;;
32082;SDS011;18597;48.328;7.932;2023-09-19T08:34:23;1.00;;;1.00;;
32082;SDS011;18597;48.328;7.932;2023-09-19T08:36:51;1.03;;;0.93;;
32082;SDS011;18597;48.328;7.932;2023-09-19T08:39:21;0.97;;;0.97;;
32082;SDS011;18597;48.328;7.932;2023-09-19T08:41:48;1.23;;;1.13;;
32082;SDS011;18597;48.328;7.932;2023-09-19T08:44:14;3.33;;;1.10;;
32082;SDS011;18597;48.328;7.932;2023-09-19T08:46:41;1.10;;;1.10;;
32082;SDS011;18597;48.328;7.932;2023-09-19T08:49:12;2.90;;;0.90;;
32082;SDS011;18597;48.328;7.932;2023-09-19T08:51:54;4.63;;;1.53;;
32082;SDS011;18597;48.328;7.932;2023-09-19T08:54:34;1.50;;;1.40;;
32082;SDS011;18597;48.328;7.932;2023-09-19T08:57:05;1.30;;;1.20;;
32082;SDS011;18597;48.328;7.932;2023-09-19T08:59:36;3.77;;;1.10;;
32082;SDS011;18597;48.328;7.932;2023-09-19T09:02:08;0.90;;;0.80;;
32082;SDS011;18597;48.328;7.932;2023-09-19T09:04:41;2.60;;;1.30;;
32082;SDS011;18597;48.328;7.932;2023-09-19T09:07:10;2.40;;;2.20;;
32082;SDS011;18597;48.328;7.932;2023-09-19T09:09:38;4.10;;;1.70;;
32082;SDS011;18597;48.328;7.932;2023-09-19T09:12:11;1.30;;;1.20;;
32082;SDS011;18597;48.328;7.932;2023-09-19T09:14:39;1.20;;;1.17;;
32082;SDS011;18597;48.328;7.932;2023-09-19T09:17:09;1.67;;;1.53;;
32082;SDS011;18597;48.328;7.932;2023-09-19T09:19:37;2.83;;;1.23;;
32082;SDS011;18597;48.328;7.932;2023-09-19T09:22:07;2.00;;;1.90;;
32082;SDS011;18597;48.328;7.932;2023-09-19T09:24:34;1.83;;;1.73;;
32082;SDS011;18597;48.328;7.932;2023-09-19T09:27:03;19.13;;;1.73;;
32082;SDS011;18597;48.328;7.932;2023-09-19T09:29:41;1.63;;;1.53;;
32082;SDS011;18597;48.328;7.932;2023-09-19T09:32:19;2.20;;;1.10;;
32082;SDS011;18597;48.328;7.932;2023-09-19T09:34:50;2.87;;;1.23;;
32082;SDS011;18597;48.328;7.932;2023-09-19T09:37:20;4.13;;;1.40;;
32082;SDS011;18597;48.328;7.932;2023-09-19T09:39:48;1.17;;;1.17;;
32082;SDS011;18597;48.328;7.932;2023-09-19T09:42:30;2.10;;;1.00;;
32082;SDS011;18597;48.328;7.932;2023-09-19T09:45:23;4.17;;;1.23;;
32082;SDS011;18597;48.328;7.932;2023-09-19T09:48:03;7.87;;;1.63;;
32082;SDS011;18597;48.328;7.932;2023-09-19T09:50:39;1.60;;;1.50;;
32082;SDS011;18597;48.328;7.932;2023-09-19T09:53:20;0.77;;;0.77;;
32082;SDS011;18597;48.328;7.932;2023-09-19T09:56:07;1.90;;;1.47;;
32082;SDS011;18597;48.328;7.932;2023-09-19T09:58:37;5.53;;;1.50;;
32082;SDS011;18597;48.328;7.932;2023-09-19T10:01:16;2.53;;;1.10;;
32082;SDS011;18597;48.328;7.932;2023-09-19T10:03:43;5.60;;;1.50;;
32082;SDS011;18597;48.328;7.932;2023-09-19T10:06:13;3.90;;;1.20;;
32082;SDS011;18597;48.328;7.932;2023-09-19T10:09:11;1.40;;;1.30;;
32082;SDS011;18597;48.328;7.932;2023-09-19T10:11:41;2.47;;;1.60;;
32082;SDS011;18597;48.328;7.932;2023-09-19T10:14:11;7.73;;;2.53;;
32082;SDS011;18597;48.328;7.932;2023-09-19T10:16:40;2.73;;;1.40;;
32082;SDS011;18597;48.328;7.932;2023-09-19T10:19:14;3.97;;;1.47;;
32082;SDS011;18597;48.328;7.932;2023-09-19T10:22:02;1.67;;;1.50;;
32082;SDS011;18597;48.328;7.932;2023-09-19T10:24:30;1.13;;;1.10;;
32082;SDS011;18597;48.328;7.932;2023-09-19T10:27:01;2.10;;;1.33;;
32082;SDS011;18597;48.328;7.932;2023-09-19T10:29:29;1.20;;;1.20;;
32082;SDS011;18597;48.328;7.932;2023-09-19T10:32:01;1.53;;;1.30;;
32082;SDS011;18597;48.328;7.932;2023-09-19T10:34:30;1.20;;;1.20;;
32082;SDS011;18597;48.328;7.932;2023-09-19T10:37:00;2.73;;;1.63;;
32082;SDS011;18597;48.328;7.932;2023-09-19T10:39:31;4.07;;;1.17;;
32082;SDS011;18597;48.328;7.932;2023-09-19T10:41:58;1.20;;;1.20;;
32082;SDS011;18597;48.328;7.932;2023-09-19T10:44:31;0.93;;;0.93;;
32082;SDS011;18597;48.328;7.932;2023-09-19T10:46:58;1.77;;;1.67;;
32082;SDS011;18597;48.328;7.932;2023-09-19T10:49:24;1.53;;;1.43;;
32082;SDS011;18597;48.328;7.932;2023-09-19T10:51:53;5.70;;;0.80;;
32082;SDS011;18597;48.328;7.932;2023-09-19T10:54:24;1.10;;;1.10;;
32082;SDS011;18597;48.328;7.932;2023-09-19T10:56:57;1.20;;;1.20;;
32082;SDS011;18597;48.328;7.932;2023-09-19T10:59:24;3.90;;;1.00;;
32082;SDS011;18597;48.328;7.932;2023-09-19T11:01:53;2.40;;;1.30;;
32082;SDS011;18597;48.328;7.932;2023-09-19T11:04:30;2.47;;;2.27;;
32082;SDS011;18597;48.328;7.932;2023-09-19T11:07:03;2.10;;;1.63;;
32082;SDS011;18597;48.328;7.932;2023-09-19T11:15:10;2.00;;;0.90;;
32082;SDS011;18597;48.328;7.932;2023-09-19T11:17:38;1.17;;;1.17;;
32082;SDS011;18597;48.328;7.932;2023-09-19T11:25:42;1.23;;;1.20;;
32082;SDS011;18597;48.328;7.932;2023-09-19T11:30:55;1.43;;;1.20;;
32082;SDS011;18597;48.328;7.932;2023-09-19T11:33:24;1.53;;;1.43;;
32082;SDS011;18597;48.328;7.932;2023-09-19T11:46:55;0.97;;;0.97;;
32082;SDS011;18597;48.328;7.932;2023-09-19T11:49:28;1.60;;;1.00;;
32082;SDS011;18597;48.328;7.932;2023-09-19T11:51:57;1.70;;;1.00;;
32082;SDS011;18597;48.328;7.932;2023-09-19T11:54:30;3.10;;;0.77;;
32082;SDS011;18597;48.328;7.932;2023-09-19T11:56:57;0.80;;;0.80;;
32082;SDS011;18597;48.328;7.932;2023-09-19T11:59:27;1.40;;;1.30;;
32082;SDS011;18597;48.328;7.932;2023-09-19T12:02:01;0.70;;;0.70;;
32082;SDS011;18597;48.328;7.932;2023-09-19T12:04:35;2.40;;;1.13;;
32082;SDS011;18597;48.328;7.932;2023-09-19T12:07:08;0.70;;;0.70;;
32082;SDS011;18597;48.328;7.932;2023-09-19T12:09:41;2.67;;;0.90;;
32082;SDS011;18597;48.328;7.932;2023-09-19T12:12:10;0.80;;;0.80;;
32082;SDS011;18597;48.328;7.932;2023-09-19T12:14:37;1.67;;;0.97;;
32082;SDS011;18597;48.328;7.932;2023-09-19T12:17:06;1.00;;;0.90;;
32082;SDS011;18597;48.328;7.932;2023-09-19T12:19:32;2.10;;;1.73;;
32082;SDS011;18597;48.328;7.932;2023-09-19T12:21:58;3.57;;;0.90;;
32082;SDS011;18597;48.328;7.932;2023-09-19T12:24:31;2.63;;;1.10;;
32082;SDS011;18597;48.328;7.932;2023-09-19T12:27:01;1.57;;;1.47;;
32082;SDS011;18597;48.328;7.932;2023-09-19T12:29:30;1.70;;;1.43;;
32082;SDS011;18597;48.328;7.932;2023-09-19T12:32:14;1.13;;;0.90;;
32082;SDS011;18597;48.328;7.932;2023-09-19T12:34:50;1.07;;;0.90;;
32082;SDS011;18597;48.328;7.932;2023-09-19T12:37:17;0.87;;;0.80;;
32082;SDS011;18597;48.328;7.932;2023-09-19T12:39:48;0.93;;;0.90;;
32082;SDS011;18597;48.328;7.932;2023-09-19T12:42:18;0.90;;;0.90;;
32082;SDS011;18597;48.328;7.932;2023-09-19T12:44:48;6.90;;;2.13;;
32082;SDS011;18597;48.328;7.932;2023-09-19T12:47:21;1.63;;;1.30;;
32082;SDS011;18597;48.328;7.932;2023-09-19T12:50:20;1.83;;;1.47;;
32082;SDS011;18597;48.328;7.932;2023-09-19T12:52:41;0.67;;;0.67;;
32082;SDS011;18597;48.328;7.932;2023-09-19T12:55:27;4.53;;;0.90;;
32082;SDS011;18597;48.328;7.932;2023-09-19T12:58:13;0.97;;;0.93;;
32082;SDS011;18597;48.328;7.932;2023-09-19T13:00:41;7.23;;;1.00;;
32082;SDS011;18597;48.328;7.932;2023-09-19T13:03:17;1.57;;;0.70;;
32082;SDS011;18597;48.328;7.932;2023-09-19T13:05:58;1.30;;;1.10;;
32082;SDS011;18597;48.328;7.932;2023-09-19T13:08:28;0.77;;;0.77;;
32082;SDS011;18597;48.328;7.932;2023-09-19T13:11:00;0.70;;;0.70;;
32082;SDS011;18597;48.328;7.932;2023-09-19T13:13:40;1.80;;;0.90;;
32082;SDS011;18597;48.328;7.932;2023-09-19T13:16:10;0.90;;;0.90;;
32082;SDS011;18597;48.328;7.932;2023-09-19T13:18:41;3.50;;;0.60;;
32082;SDS011;18597;48.328;7.932;2023-09-19T13:21:11;1.50;;;0.50;;
32082;SDS011;18597;48.328;7.932;2023-09-19T13:23:55;1.10;;;1.00;;
32082;SDS011;18597;48.328;7.932;2023-09-19T13:26:41;1.30;;;1.17;;
32082;SDS011;18597;48.328;7.932;2023-09-19T13:29:07;0.63;;;0.63;;
32082;SDS011;18597;48.328;7.932;2023-09-19T13:31:32;0.90;;;0.90;;
32082;SDS011;18597;48.328;7.932;2023-09-19T13:33:58;1.07;;;1.07;;
32082;SDS011;18597;48.328;7.932;2023-09-19T13:36:24;0.70;;;0.70;;
32082;SDS011;18597;48.328;7.932;2023-09-19T13:38:50;0.70;;;0.70;;
32082;SDS011;18597;48.328;7.932;2023-09-19T13:41:18;0.67;;;0.60;;
32082;SDS011;18597;48.328;7.932;2023-09-19T13:43:44;1.07;;;0.70;;
32082;SDS011;18597;48.328;7.932;2023-09-19T13:46:13;2.00;;;0.97;;
32082;SDS011;18597;48.328;7.932;2023-09-19T13:48:41;0.87;;;0.87;;
32082;SDS011;18597;48.328;7.932;2023-09-19T13:51:07;0.70;;;0.70;;
32082;SDS011;18597;48.328;7.932;2023-09-19T13:53:32;0.93;;;0.60;;
32082;SDS011;18597;48.328;7.932;2023-09-19T13:55:59;0.80;;;0.80;;
32082;SDS011;18597;48.328;7.932;2023-09-19T13:58:24;6.27;;;0.73;;
32082;SDS011;18597;48.328;7.932;2023-09-19T14:00:52;0.90;;;0.90;;
32082;SDS011;18597;48.328;7.932;2023-09-19T14:03:20;0.80;;;0.80;;
32082;SDS011;18597;48.328;7.932;2023-09-19T14:05:46;0.70;;;0.70;;
32082;SDS011;18597;48.328;7.932;2023-09-19T14:08:13;1.23;;;0.60;;
32082;SDS011;18597;48.328;7.932;2023-09-19T14:10:38;0.83;;;0.70;;
32082;SDS011;18597;48.328;7.932;2023-09-19T14:13:04;2.47;;;2.37;;
32082;SDS011;18597;48.328;7.932;2023-09-19T14:15:30;1.30;;;1.30;;
32082;SDS011;18597;48.328;7.932;2023-09-19T14:17:57;1.43;;;1.33;;
32082;SDS011;18597;48.328;7.932;2023-09-19T14:20:25;0.63;;;0.63;;
32082;SDS011;18597;48.328;7.932;2023-09-19T14:22:52;1.27;;;0.70;;
32082;SDS011;18597;48.328;7.932;2023-09-19T14:25:19;0.90;;;0.70;;
32082;SDS011;18597;48.328;7.932;2023-09-19T14:27:46;2.83;;;1.13;;
32082;SDS011;18597;48.328;7.932;2023-09-19T14:30:13;1.80;;;1.00;;
32082;SDS011;18597;48.328;7.932;2023-09-19T14:32:39;2.80;;;0.63;;
32082;SDS011;18597;48.328;7.932;2023-09-19T14:35:06;4.43;;;0.77;;
32082;SDS011;18597;48.328;7.932;2023-09-19T14:37:34;1.10;;;1.00;;
32082;SDS011;18597;48.328;7.932;2023-09-19T14:40:00;0.70;;;0.70;;
32082;SDS011;18597;48.328;7.932;2023-09-19T14:42:32;2.60;;;0.73;;
32082;SDS011;18597;48.328;7.932;2023-09-19T14:44:57;4.13;;;1.07;;
32082;SDS011;18597;48.328;7.932;2023-09-19T14:47:23;2.20;;;2.00;;
32082;SDS011;18597;48.328;7.932;2023-09-19T14:49:50;0.60;;;0.60;;
32082;SDS011;18597;48.328;7.932;2023-09-19T14:52:16;1.23;;;0.90;;
32082;SDS011;18597;48.328;7.932;2023-09-19T14:54:42;0.80;;;0.80;;
32082;SDS011;18597;48.328;7.932;2023-09-19T14:57:07;6.10;;;0.93;;
32082;SDS011;18597;48.328;7.932;2023-09-19T14:59:34;1.37;;;0.90;;
32082;SDS011;18597;48.328;7.932;2023-09-19T15:02:03;1.47;;;1.20;;
32082;SDS011;18597;48.328;7.932;2023-09-19T15:04:30;2.70;;;2.27;;
32082;SDS011;18597;48.328;7.932;2023-09-19T15:06:56;1.30;;;1.20;;
32082;SDS011;18597;48.328;7.932;2023-09-19T15:09:22;1.03;;;1.03;;
32082;SDS011;18597;48.328;7.932;2023-09-19T15:11:51;1.73;;;1.30;;
32082;SDS011;18597;48.328;7.932;2023-09-19T15:14:18;1.80;;;0.93;;
32082;SDS011;18597;48.328;7.932;2023-09-19T15:16:44;3.77;;;1.03;;
32082;SDS011;18597;48.328;7.932;2023-09-19T15:19:10;1.07;;;1.07;;
32082;SDS011;18597;48.328;7.932;2023-09-19T15:21:36;1.27;;;1.17;;
32082;SDS011;18597;48.328;7.932;2023-09-19T15:24:03;5.60;;;1.30;;
32082;SDS011;18597;48.328;7.932;2023-09-19T15:26:30;2.70;;;1.20;;
32082;SDS011;18597;48.328;7.932;2023-09-19T15:28:56;2.00;;;1.07;;
32082;SDS011;18597;48.328;7.932;2023-09-19T15:31:22;1.50;;;1.40;;
32082;SDS011;18597;48.328;7.932;2023-09-19T15:33:47;1.40;;;1.30;;
32082;SDS011;18597;48.328;7.932;2023-09-19T15:36:14;1.50;;;1.40;;